Time;durP1;ratioP1;P1;durP2;ratioP2;P2;SDS_P1;SDS_P2;PMS_P1;PMS_P2;Temp;Humidity;BMP_temperature;BMP_pressure;BME280_temperature;BME280_humidity;BME280_pressure;Samples;Min_cycle;Max_cycle;Signal;HPM_P1;HPM_P2
2023/10/15 00:00:34;;;;;;;;;0.00;0.00;;;;;8.05;75.80;100033.69;5114869;28;8819;-57
2023/10/15 00:03:02;;;;;;;;;0.00;0.00;;;;;8.03;75.86;100022.34;5114550;28;8804;-56
2023/10/15 00:05:30;;;;;;;;;1.00;0.50;;;;;8.01;75.54;100026.91;5111979;28;8874;-59
2023/10/15 00:07:58;;;;;;;;;0.50;0.50;;;;;7.99;76.04;100016.38;5098313;28;8873;-58
2023/10/15 00:10:26;;;;;;;;;0.75;0.75;;;;;7.98;75.72;100013.84;5094000;28;9502;-57
2023/10/15 00:12:54;;;;;;;;;0.25;0.25;;;;;7.98;76.46;100011.22;5094585;28;8806;-59
2023/10/15 00:15:23;;;;;;;;;1.00;0.00;;;;;7.96;76.37;100013.94;5094147;28;8988;-59
2023/10/15 00:17:51;;;;;;;;;0.75;0.00;;;;;7.95;76.03;100017.56;5094064;28;8849;-57
2023/10/15 00:20:21;;;;;;;;;0.00;0.00;;;;;7.95;76.06;100022.00;5094424;28;8837;-59
2023/10/15 00:22:49;;;;;;;;;0.00;0.00;;;;;7.93;75.96;100015.97;5094777;28;8851;-57
2023/10/15 00:25:18;;;;;;;;;0.00;0.00;;;;;7.92;75.95;100017.75;5094321;28;8815;-58
2023/10/15 00:27:52;;;;;;;;;1.00;1.00;;;;;7.92;75.99;100017.75;5094499;28;9669;-58
2023/10/15 00:30:21;;;;;;;;;1.00;1.00;;;;;7.91;76.10;100009.94;5094412;28;8834;-59
2023/10/15 00:32:52;;;;;;;;;0.00;0.00;;;;;7.90;76.36;100009.06;5094382;28;8842;-59
2023/10/15 00:35:20;;;;;;;;;1.00;1.00;;;;;7.87;76.39;100011.94;5094018;28;8873;-58
2023/10/15 00:37:54;;;;;;;;;0.75;0.75;;;;;7.86;76.18;100002.28;5093750;28;8814;-59
2023/10/15 00:40:23;;;;;;;;;1.00;0.75;;;;;7.86;76.36;100007.59;5094152;28;8833;-58
2023/10/15 00:42:51;;;;;;;;;1.00;1.00;;;;;7.85;76.38;100000.56;5093056;28;8896;-58
2023/10/15 00:45:19;;;;;;;;;0.50;0.50;;;;;7.85;75.98;100003.22;5092841;28;8864;-57
2023/10/15 00:47:51;;;;;;;;;1.00;1.00;;;;;7.85;76.32;99999.72;5093708;28;8972;-58
2023/10/15 00:50:19;;;;;;;;;0.50;0.50;;;;;7.85;76.15;99999.72;5093730;28;8857;-56
2023/10/15 00:52:48;;;;;;;;;0.00;0.00;;;;;7.84;76.39;100000.69;5094331;28;8877;-57
2023/10/15 00:55:17;;;;;;;;;1.00;1.00;;;;;7.81;76.66;100004.38;5094907;28;9539;-58
2023/10/15 00:57:46;;;;;;;;;1.00;0.00;;;;;7.79;76.68;100002.78;5098234;28;8826;-56
2023/10/15 01:02:57;;;;;;;;;1.00;1.00;;;;;7.74;76.02;99994.28;5097204;28;9554;-56
2023/10/15 01:05:26;;;;;;;;;0.00;0.00;;;;;7.73;76.19;99993.44;5097728;28;8910;-57
2023/10/15 01:07:54;;;;;;;;;0.00;0.00;;;;;7.70;76.38;99988.34;5097601;28;8825;-57
2023/10/15 01:10:29;;;;;;;;;0.00;0.00;;;;;7.70;76.59;99993.63;5113979;28;8816;-58
2023/10/15 01:13:17;;;;;;;;;1.00;0.25;;;;;7.69;76.36;99994.59;5109240;28;8814;-56
2023/10/15 01:15:48;;;;;;;;;0.75;0.00;;;;;7.69;76.50;99996.41;5098568;28;8983;-58
2023/10/15 01:18:15;;;;;;;;;1.67;1.67;;;;;7.72;76.59;99984.75;5097894;28;8806;-56
2023/10/15 01:20:43;;;;;;;;;0.25;0.25;;;;;7.72;76.58;99982.94;5097472;28;8822;-57
2023/10/15 01:23:28;;;;;;;;;1.00;1.00;;;;;7.73;76.40;99985.50;5097840;28;8864;-58
2023/10/15 01:25:57;;;;;;;;;2.00;1.00;;;;;7.71;76.69;99983.91;5097247;28;8826;-56
2023/10/15 01:28:36;;;;;;;;;0.50;0.50;;;;;7.70;76.11;99983.03;5097893;28;8819;-58
2023/10/15 01:31:06;;;;;;;;;1.00;1.00;;;;;7.68;76.27;99982.31;5096810;28;8826;-58
2023/10/15 01:33:45;;;;;;;;;0.00;0.00;;;;;7.65;76.53;99984.31;5097052;28;8845;-58
2023/10/15 01:36:18;;;;;;;;;0.00;0.00;;;;;7.66;76.79;99987.81;5097671;28;8818;-57
2023/10/15 01:38:46;;;;;;;;;1.00;0.75;;;;;7.64;76.60;99985.25;5097498;28;8806;-58
2023/10/15 01:41:16;;;;;;;;;1.00;1.00;;;;;7.64;76.81;99985.25;5097086;28;8872;-56
2023/10/15 01:43:46;;;;;;;;;0.00;0.00;;;;;7.64;76.82;99977.31;5097248;28;8818;-57
2023/10/15 01:46:24;;;;;;;;;0.00;0.00;;;;;7.64;76.62;99973.84;5098313;28;9507;-56
2023/10/15 01:48:53;;;;;;;;;4.00;1.00;;;;;7.63;76.59;99977.41;5097559;28;8830;-59
2023/10/15 01:51:20;;;;;;;;;1.00;1.00;;;;;7.62;76.58;99970.41;5097071;28;8842;-57
2023/10/15 01:53:48;;;;;;;;;0.75;0.75;;;;;7.61;76.80;99969.59;5096938;28;8818;-57
2023/10/15 01:56:20;;;;;;;;;0.25;0.00;;;;;7.61;76.71;99968.72;5096999;28;9602;-56
2023/10/15 01:58:48;;;;;;;;;0.25;0.25;;;;;7.60;76.42;99967.03;5097110;28;8853;-56
2023/10/15 02:01:21;;;;;;;;;1.00;1.00;;;;;7.59;76.69;99965.34;5096630;28;8826;-57
2023/10/15 02:03:49;;;;;;;;;0.00;0.00;;;;;7.60;76.36;99959.94;5097089;28;9472;-59
2023/10/15 02:06:19;;;;;;;;;2.00;2.00;;;;;7.61;76.74;99966.06;5096505;28;9483;-57
2023/10/15 02:08:51;;;;;;;;;0.00;0.00;;;;;7.63;76.49;99961.50;5095995;28;8974;-59
2023/10/15 02:11:22;;;;;;;;;3.00;2.00;;;;;7.65;76.53;99963.09;5105003;28;8804;-56
2023/10/15 02:13:50;;;;;;;;;1.50;1.50;;;;;7.72;76.41;99968.88;5116888;28;8904;-58
2023/10/15 02:16:25;;;;;;;;;1.00;1.00;;;;;7.79;76.27;99979.78;5105652;28;8830;-56
2023/10/15 02:18:53;;;;;;;;;0.75;0.75;;;;;7.86;75.96;100007.59;5096978;28;8941;-57
2023/10/15 02:21:21;;;;;;;;;0.75;0.75;;;;;7.92;76.28;100009.78;5103821;28;8812;-55
2023/10/15 02:23:52;;;;;;;;;1.00;1.00;;;;;7.96;75.87;100013.09;5106355;28;8818;-59
2023/10/15 02:26:23;;;;;;;;;2.25;1.75;;;;;7.98;75.60;100006.72;5103806;28;8830;-59
2023/10/15 02:28:53;;;;;;;;;2.50;2.50;;;;;7.98;75.64;100017.34;5101550;28;8818;-59
2023/10/15 02:31:22;;;;;;;;;1.50;1.50;;;;;8.01;75.77;100006.53;5095637;28;8822;-59
2023/10/15 02:33:50;;;;;;;;;1.00;1.00;;;;;8.06;75.86;100016.84;5096472;28;8830;-56
2023/10/15 02:36:23;;;;;;;;;0.50;0.00;;;;;8.11;75.23;100020.00;5095801;28;8973;-59
2023/10/15 02:38:55;;;;;;;;;1.00;1.00;;;;;8.14;75.43;100007.38;5095937;28;8949;-58
2023/10/15 02:41:25;;;;;;;;;2.50;2.50;;;;;8.18;75.34;100000.94;5096763;28;8833;-58
2023/10/15 02:43:55;;;;;;;;;1.00;1.00;;;;;8.21;75.22;99994.59;5096666;28;8798;-58
2023/10/15 02:46:23;;;;;;;;;1.50;1.50;;;;;8.21;75.64;99995.44;5096581;28;9809;-59
2023/10/15 02:48:53;;;;;;;;;3.00;1.00;;;;;8.20;75.50;99999.03;5095935;28;8834;-58
2023/10/15 02:51:24;;;;;;;;;3.50;3.00;;;;;8.19;75.58;100010.59;5096490;28;8841;-59
2023/10/15 02:53:54;;;;;;;;;6.50;6.50;;;;;8.19;75.36;100002.66;5095674;28;8822;-59
2023/10/15 02:56:22;;;;;;;;;6.25;6.25;;;;;8.18;75.47;100003.56;5096486;28;8907;-59
2023/10/15 02:58:50;;;;;;;;;6.75;6.75;;;;;8.20;75.21;100006.16;5096352;28;8848;-59
2023/10/15 03:01:20;;;;;;;;;5.20;5.20;;;;;8.19;76.07;100013.25;5095602;28;8838;-57
2023/10/15 03:03:52;;;;;;;;;5.00;4.00;;;;;8.20;75.88;100007.00;5094859;28;8818;-58
2023/10/15 03:06:24;;;;;;;;;8.25;7.75;;;;;8.20;75.44;100003.53;5095791;28;8952;-59
2023/10/15 03:08:52;;;;;;;;;8.50;8.00;;;;;8.20;75.31;100007.00;5095264;28;8948;-59
2023/10/15 03:11:20;;;;;;;;;6.50;6.00;;;;;8.23;75.55;100004.16;5095912;28;8845;-59
2023/10/15 03:13:53;;;;;;;;;8.00;7.25;;;;;8.26;75.51;100001.28;5095583;28;9480;-59
2023/10/15 03:16:20;;;;;;;;;10.00;9.00;;;;;8.31;75.34;100011.56;5095589;28;8834;-57
2023/10/15 03:18:52;;;;;;;;;10.00;8.60;;;;;8.33;75.41;100012.31;5095590;28;8806;-59
2023/10/15 03:21:26;;;;;;;;;10.50;10.00;;;;;8.35;75.22;100015.72;5095677;28;8802;-59
2023/10/15 03:23:55;;;;;;;;;12.60;12.40;;;;;8.36;75.31;100012.09;5095349;28;8822;-58
2023/10/15 03:26:22;;;;;;;;;9.00;9.00;;;;;8.38;75.24;100012.84;5103418;28;8838;-59
2023/10/15 03:28:52;;;;;;;;;7.40;4.40;;;;;8.41;75.05;100023.22;5115860;28;8824;-58
2023/10/15 03:31:23;;;;;;;;;9.00;9.00;;;;;8.41;75.14;100021.44;5109377;28;8970;-57
2023/10/15 03:34:12;;;;;;;;;7.80;7.40;;;;;8.43;75.14;100021.34;5101920;28;8802;-59
2023/10/15 03:36:47;;;;;;;;;10.00;9.25;;;;;8.44;74.81;100021.22;5095222;28;8849;-59
2023/10/15 03:39:24;;;;;;;;;9.25;9.25;;;;;8.45;75.22;100022.91;5094786;28;8842;-58
2023/10/15 03:42:09;;;;;;;;;12.00;10.00;;;;;8.48;75.59;100021.84;5097046;28;8830;-59
2023/10/15 03:44:37;;;;;;;;;10.75;10.25;;;;;8.47;75.01;100021.03;5102559;28;8834;-59
2023/10/15 03:47:05;;;;;;;;;10.00;9.00;;;;;8.48;75.09;100017.41;5094736;28;8852;-58
2023/10/15 03:49:33;;;;;;;;;11.00;9.75;;;;;8.48;75.18;100025.38;5095212;28;9460;-58
2023/10/15 03:52:07;;;;;;;;;12.80;9.00;;;;;8.49;75.29;100019.09;5095401;28;8830;-59
2023/10/15 03:54:35;;;;;;;;;12.20;12.20;;;;;8.49;75.24;100026.19;5095122;28;8822;-59
2023/10/15 03:57:06;;;;;;;;;14.00;13.00;;;;;8.49;75.15;100019.09;5095304;28;8830;-57
2023/10/15 03:59:42;;;;;;;;;10.00;10.00;;;;;8.48;74.92;100009.44;5094700;28;8826;-58
2023/10/15 04:02:11;;;;;;;;;12.00;10.00;;;;;8.43;75.33;100016.88;5095199;28;8874;-58
2023/10/15 04:04:39;;;;;;;;;8.00;7.00;;;;;8.36;75.42;100023.56;5094523;28;8842;-58
2023/10/15 04:07:19;;;;;;;;;12.20;11.20;;;;;8.30;75.68;100013.34;5094495;28;8907;-58
2023/10/15 04:09:48;;;;;;;;;11.20;10.20;;;;;8.27;76.13;100018.88;5095168;28;9503;-57
2023/10/15 04:12:19;;;;;;;;;9.00;9.00;;;;;8.23;75.61;100020.06;5094762;28;9696;-57
2023/10/15 04:14:47;;;;;;;;;12.00;10.00;;;;;8.22;75.97;100021.00;5094581;28;8838;-58
2023/10/15 04:17:15;;;;;;;;;8.50;6.00;;;;;8.20;75.94;100017.59;5094430;28;8822;-59
2023/10/15 04:19:43;;;;;;;;;8.00;7.00;;;;;8.18;76.14;100014.19;5094978;28;8830;-59
2023/10/15 04:22:14;;;;;;;;;9.00;9.00;;;;;8.16;76.32;100010.81;5094647;28;8907;-59
2023/10/15 04:24:46;;;;;;;;;6.50;6.00;;;;;8.15;76.09;100009.06;5094708;28;8844;-57
2023/10/15 04:27:17;;;;;;;;;6.50;6.50;;;;;8.14;76.11;100001.25;5094692;28;8822;-57
2023/10/15 04:29:49;;;;;;;;;10.25;8.00;;;;;8.14;76.04;100015.34;5094613;28;8842;-58
2023/10/15 04:32:23;;;;;;;;;8.80;7.00;;;;;8.11;76.02;100012.91;5098777;28;8818;-58
2023/10/15 04:34:51;;;;;;;;;5.50;5.25;;;;;8.08;76.30;100012.25;5098888;28;8838;-58
2023/10/15 04:37:20;;;;;;;;;7.00;3.50;;;;;8.05;76.36;100015.97;5098068;28;8814;-59
2023/10/15 04:39:54;;;;;;;;;7.75;7.50;;;;;8.03;76.23;100020.53;5098755;28;8841;-58
2023/10/15 04:42:48;;;;;;;;;10.00;8.40;;;;;8.01;76.40;100019.81;5097953;28;8924;-57
2023/10/15 04:45:23;;;;;;;;;4.00;2.60;;;;;7.98;76.33;100011.22;5107396;28;8820;-57
2023/10/15 04:47:59;;;;;;;;;9.60;8.80;;;;;7.97;76.42;100005.03;5113427;28;8922;-58
2023/10/15 04:50:29;;;;;;;;;9.40;9.00;;;;;7.95;76.54;100001.66;5098584;28;8853;-56
2023/10/15 04:53:12;;;;;;;;;10.60;9.40;;;;;7.94;76.98;100002.63;5097892;28;8826;-57
2023/10/15 04:55:39;;;;;;;;;6.00;4.40;;;;;7.91;76.38;100007.28;5098866;28;8842;-58
2023/10/15 04:58:08;;;;;;;;;9.80;9.00;;;;;7.87;76.54;99985.41;5097776;28;8822;-58
2023/10/15 05:00:37;;;;;;;;;7.20;7.20;;;;;7.85;77.08;100000.56;5097860;28;8822;-58
2023/10/15 05:03:05;;;;;;;;;8.60;8.00;;;;;7.79;76.79;99990.41;5097794;28;8841;-58
2023/10/15 05:05:34;;;;;;;;;7.80;6.80;;;;;7.77;77.24;99994.94;5096954;28;8946;-55
2023/10/15 05:08:02;;;;;;;;;6.40;6.40;;;;;7.73;77.07;99996.09;5097867;28;9542;-55
2023/10/15 05:10:31;;;;;;;;;8.60;6.80;;;;;7.73;77.01;99990.81;5097517;28;8830;-56
2023/10/15 05:12:59;;;;;;;;;6.80;6.20;;;;;7.72;77.17;99992.72;5097964;28;9562;-58
2023/10/15 05:15:27;;;;;;;;;7.80;7.00;;;;;7.72;77.22;99994.41;5097708;28;8996;-55
2023/10/15 05:17:54;;;;;;;;;4.67;4.67;;;;;7.70;77.33;99977.75;5097545;28;8872;-57
2023/10/15 05:20:22;;;;;;;;;5.60;4.00;;;;;7.72;77.34;99987.41;5097921;28;8822;-58
2023/10/15 05:22:49;;;;;;;;;6.60;6.40;;;;;7.70;77.33;99979.56;5097633;28;8830;-56
2023/10/15 05:25:18;;;;;;;;;6.40;6.40;;;;;7.69;77.76;99976.03;5098032;28;9525;-56
2023/10/15 05:27:45;;;;;;;;;3.00;3.00;;;;;7.69;77.63;99981.34;5097950;28;8830;-58
2023/10/15 05:30:15;;;;;;;;;1.00;1.00;;;;;7.70;77.15;99984.84;5097172;28;8833;-58
2023/10/15 05:32:43;;;;;;;;;3.00;3.00;;;;;7.70;77.11;99985.69;5096881;28;8848;-57
2023/10/15 05:35:11;;;;;;;;;3.00;3.00;;;;;7.72;77.00;99984.75;5096311;28;8849;-57
2023/10/15 05:37:39;;;;;;;;;1.50;1.50;;;;;7.70;77.07;100001.59;5096835;28;8857;-57
2023/10/15 05:40:07;;;;;;;;;1.50;1.00;;;;;7.72;77.13;100005.00;5096348;28;8940;-58
2023/10/15 05:42:35;;;;;;;;;1.00;1.00;;;;;7.73;76.66;100006.69;5095121;28;8814;-57
2023/10/15 05:45:06;;;;;;;;;1.00;1.00;;;;;7.75;76.58;100014.56;5096850;28;8834;-58
2023/10/15 05:47:34;;;;;;;;;1.00;1.00;;;;;7.76;77.27;100017.09;5105902;28;8820;-56
2023/10/15 05:50:04;;;;;;;;;4.00;3.00;;;;;7.77;76.79;100004.69;5097894;28;9467;-58
2023/10/15 05:52:32;;;;;;;;;1.00;1.00;;;;;7.77;77.08;100013.47;5108954;28;9489;-58
2023/10/15 05:55:00;;;;;;;;;0.75;0.50;;;;;7.77;76.96;100021.44;5109198;28;8834;-58
2023/10/15 05:57:29;;;;;;;;;1.50;1.00;;;;;7.78;76.83;100014.34;5096682;28;8937;-56
2023/10/15 05:59:57;;;;;;;;;1.00;1.00;;;;;7.75;76.78;100004.78;5096484;28;8837;-58
2023/10/15 06:02:24;;;;;;;;;1.50;1.00;;;;;7.73;77.22;100016.44;5096673;28;8818;-58
2023/10/15 06:04:52;;;;;;;;;0.00;0.00;;;;;7.72;76.93;100020.03;5097056;28;8830;-56
2023/10/15 06:07:20;;;;;;;;;0.75;0.75;;;;;7.71;77.19;100018.34;5096583;28;8854;-57
2023/10/15 06:09:50;;;;;;;;;0.00;0.00;;;;;7.72;76.92;100025.34;5096721;28;8814;-57
2023/10/15 06:12:17;;;;;;;;;0.50;0.50;;;;;7.72;77.04;100031.50;5097791;28;9573;-58
2023/10/15 06:14:46;;;;;;;;;0.00;0.00;;;;;7.72;76.92;100023.56;5097012;28;8852;-57
2023/10/15 06:17:14;;;;;;;;;2.00;1.00;;;;;7.73;76.75;100022.59;5096489;28;8834;-56
2023/10/15 06:19:42;;;;;;;;;1.00;0.75;;;;;7.74;77.11;100036.69;5096484;28;8840;-58
2023/10/15 06:22:10;;;;;;;;;0.00;0.00;;;;;7.73;76.83;100027.91;5096485;28;8811;-58
2023/10/15 06:24:38;;;;;;;;;0.50;0.50;;;;;7.73;77.05;100027.91;5096430;28;8814;-58
2023/10/15 06:27:06;;;;;;;;;0.00;0.00;;;;;7.73;76.98;100033.22;5096269;28;8822;-58
2023/10/15 06:29:33;;;;;;;;;1.00;1.00;;;;;7.74;76.84;100034.91;5096774;28;8838;-58
2023/10/15 06:32:01;;;;;;;;;0.50;0.50;;;;;7.75;76.65;100044.53;5095911;28;8852;-57
2023/10/15 06:34:28;;;;;;;;;0.00;0.00;;;;;7.76;76.97;100043.59;5096984;28;9722;-57
2023/10/15 06:36:56;;;;;;;;;0.00;0.00;;;;;7.79;76.49;100046.06;5096717;28;8818;-58
2023/10/15 06:39:24;;;;;;;;;0.75;0.25;;;;;7.81;76.68;100052.09;5095519;28;8826;-58
2023/10/15 06:41:51;;;;;;;;;0.25;0.25;;;;;7.84;76.82;100059.84;5094933;28;8846;-58
2023/10/15 06:44:19;;;;;;;;;1.00;0.25;;;;;7.86;76.58;100060.59;5094969;28;9534;-58
2023/10/15 06:46:47;;;;;;;;;0.00;0.00;;;;;7.87;76.81;100053.47;5094816;28;8830;-56
2023/10/15 06:49:15;;;;;;;;;0.50;0.50;;;;;7.88;76.93;100053.38;5094803;28;8845;-58
2023/10/15 06:51:43;;;;;;;;;0.00;0.00;;;;;7.88;76.84;100048.09;5095627;28;8862;-56
2023/10/15 06:54:11;;;;;;;;;1.00;0.00;;;;;7.87;76.56;100048.19;5103429;28;8796;-56
2023/10/15 06:56:39;;;;;;;;;0.00;0.00;;;;;7.86;76.83;100054.44;5116101;28;8819;-57
2023/10/15 06:59:07;;;;;;;;;0.25;0.25;;;;;7.85;77.07;100048.28;5116112;28;8816;-58
2023/10/15 07:01:35;;;;;;;;;1.00;1.00;;;;;7.86;76.51;100059.75;5115906;28;8812;-56
2023/10/15 07:04:06;;;;;;;;;0.00;0.00;;;;;7.86;77.28;100065.03;5102081;28;8814;-58
2023/10/15 07:06:33;;;;;;;;;1.00;1.00;;;;;7.85;76.69;100044.78;5113304;28;8832;-55
2023/10/15 07:09:02;;;;;;;;;1.00;1.00;;;;;7.83;76.78;100058.13;5114004;28;8822;-59
2023/10/15 07:11:30;;;;;;;;;0.50;0.50;;;;;7.82;76.93;100053.78;5111750;28;8845;-56
2023/10/15 07:13:58;;;;;;;;;0.50;0.50;;;;;7.82;77.16;100063.53;5103620;28;8824;-58
2023/10/15 07:16:26;;;;;;;;;2.00;1.00;;;;;7.81;76.84;100065.34;5095726;28;8903;-58
2023/10/15 07:18:53;;;;;;;;;1.00;1.00;;;;;7.83;77.03;100059.97;5095490;28;9471;-56
2023/10/15 07:21:21;;;;;;;;;1.00;0.00;;;;;7.83;76.98;100063.44;5094976;28;8830;-58
2023/10/15 07:23:51;;;;;;;;;0.00;0.00;;;;;7.85;76.86;100074.78;5095123;28;8845;-57
2023/10/15 07:26:19;;;;;;;;;0.75;0.75;;;;;7.86;76.86;100084.47;5095234;28;8829;-56
2023/10/15 07:28:46;;;;;;;;;1.00;1.00;;;;;7.90;77.02;100077.16;5094584;28;8821;-58
2023/10/15 07:31:15;;;;;;;;;0.00;0.00;;;;;7.94;76.71;100079.50;5074522;28;8831;-57
2023/10/15 07:33:46;;;;;;;;;2.00;0.50;;;;;8.01;76.49;100085.22;5073419;28;9538;-58
2023/10/15 07:36:13;;;;;;;;;0.00;0.00;;;;;8.07;76.35;100093.63;5073490;28;8855;-58
2023/10/15 07:38:41;;;;;;;;;0.00;0.00;;;;;8.16;76.16;100098.31;5073831;28;8881;-58
2023/10/15 07:41:09;;;;;;;;;1.00;1.00;;;;;8.24;76.21;100106.66;5073733;28;8831;-58
2023/10/15 07:43:37;;;;;;;;;1.00;1.00;;;;;8.31;76.24;100118.53;5073933;28;8840;-57
2023/10/15 07:46:04;;;;;;;;;2.00;2.00;;;;;8.38;75.65;100113.66;5074537;28;8933;-56
2023/10/15 07:48:32;;;;;;;;;1.00;0.00;;;;;8.42;75.50;100123.97;5074692;28;8816;-57
2023/10/15 07:51:00;;;;;;;;;1.50;1.50;;;;;8.47;75.74;100126.28;5075267;28;9617;-57
2023/10/15 07:53:27;;;;;;;;;0.75;0.00;;;;;8.52;75.61;100119.72;5074456;28;8824;-58
2023/10/15 07:55:56;;;;;;;;;0.50;0.50;;;;;8.61;75.54;100121.75;5074839;28;8812;-56
2023/10/15 07:58:23;;;;;;;;;0.00;0.00;;;;;8.63;75.16;100133.13;5074500;28;8820;-56
2023/10/15 08:00:53;;;;;;;;;2.50;2.50;;;;;8.65;75.52;100136.50;5074187;28;8824;-58
2023/10/15 08:03:37;;;;;;;;;0.00;0.00;;;;;8.68;75.06;100130.97;5073286;28;8824;-57
2023/10/15 08:06:07;;;;;;;;;1.00;1.00;;;;;8.70;75.29;100133.53;5079310;28;8840;-59
2023/10/15 08:08:35;;;;;;;;;0.50;0.00;;;;;8.73;75.43;100134.16;5093771;28;8841;-57
2023/10/15 08:11:03;;;;;;;;;2.00;1.00;;;;;8.78;75.00;100140.03;5093613;28;8830;-58
2023/10/15 08:13:31;;;;;;;;;3.00;3.00;;;;;8.83;75.17;100151.16;5093577;28;8927;-58
2023/10/15 08:15:59;;;;;;;;;3.00;2.50;;;;;8.84;75.34;100147.56;5094037;28;8838;-56
2023/10/15 08:18:26;;;;;;;;;4.00;4.00;;;;;8.85;75.29;100151.94;5099477;28;8823;-58
2023/10/15 08:20:54;;;;;;;;;3.50;2.75;;;;;8.88;75.23;100156.19;5108081;28;8803;-56
2023/10/15 08:23:22;;;;;;;;;4.00;3.75;;;;;8.92;75.14;100157.66;5093753;28;8833;-58
2023/10/15 08:25:50;;;;;;;;;3.00;3.00;;;;;8.98;74.96;100149.25;5092798;28;8830;-59
2023/10/15 08:28:18;;;;;;;;;5.00;4.00;;;;;9.06;74.71;100150.44;5092966;28;8846;-56
2023/10/15 08:30:46;;;;;;;;;1.00;1.00;;;;;9.12;74.54;100152.63;5092810;28;8836;-57
2023/10/15 08:33:14;;;;;;;;;2.00;2.00;;;;;9.31;74.08;100162.81;5093292;28;8972;-58
2023/10/15 08:35:42;;;;;;;;;2.50;2.50;;;;;9.51;73.68;100167.56;5092675;28;8837;-58
2023/10/15 08:38:10;;;;;;;;;4.50;4.00;;;;;9.53;74.00;100163.84;5093036;28;8818;-58
2023/10/15 08:40:39;;;;;;;;;4.00;3.50;;;;;9.53;74.08;100163.84;5093168;28;8865;-58
2023/10/15 08:43:07;;;;;;;;;0.00;0.00;;;;;9.55;73.99;100167.22;5093668;28;8860;-57
2023/10/15 08:45:34;;;;;;;;;4.50;4.00;;;;;9.63;73.73;100172.84;5093881;28;8960;-58
2023/10/15 08:48:03;;;;;;;;;6.50;6.50;;;;;9.70;73.50;100171.44;5093391;28;8845;-58
2023/10/15 08:50:31;;;;;;;;;2.50;2.50;;;;;9.78;73.65;100174.41;5093481;28;8879;-57
2023/10/15 08:52:59;;;;;;;;;3.00;3.00;;;;;9.86;73.42;100177.34;5094111;28;9531;-56
2023/10/15 08:55:27;;;;;;;;;3.75;3.25;;;;;9.96;73.61;100180.19;5093670;28;8829;-56
2023/10/15 08:57:56;;;;;;;;;3.25;3.25;;;;;10.06;73.16;100173.25;5093003;28;8833;-58
2023/10/15 09:00:28;;;;;;;;;3.00;3.00;;;;;10.20;72.90;100195.25;5093585;28;8846;-57
2023/10/15 09:03:00;;;;;;;;;3.50;3.50;;;;;10.26;72.88;100194.75;5093293;28;8810;-56
2023/10/15 09:05:30;;;;;;;;;3.25;3.00;;;;;10.21;73.21;100194.28;5093929;28;8864;-56
2023/10/15 09:08:04;;;;;;;;;6.00;4.00;;;;;10.11;72.71;100200.38;5093447;28;8837;-56
2023/10/15 09:10:32;;;;;;;;;3.00;3.00;;;;;10.01;73.51;100194.03;5093615;28;8842;-57
2023/10/15 09:13:01;;;;;;;;;3.50;3.50;;;;;9.95;73.47;100194.47;5092956;28;8841;-59
2023/10/15 09:15:30;;;;;;;;;1.00;1.00;;;;;9.93;73.93;100196.38;5093287;28;8834;-58
2023/10/15 09:17:57;;;;;;;;;2.25;2.00;;;;;9.89;73.46;100201.09;5096489;28;8826;-57
2023/10/15 09:20:32;;;;;;;;;3.50;3.50;;;;;9.86;73.92;100203.94;5096526;28;8968;-57
2023/10/15 09:23:00;;;;;;;;;3.00;3.00;;;;;9.85;73.80;100212.88;5104878;28;8897;-58
2023/10/15 09:25:30;;;;;;;;;4.00;3.50;;;;;9.79;74.12;100218.66;5105378;28;8832;-58
2023/10/15 09:27:59;;;;;;;;;5.50;4.50;;;;;9.77;74.06;100215.25;5095523;28;8845;-56
2023/10/15 09:30:26;;;;;;;;;5.50;4.00;;;;;9.77;74.21;100215.25;5094734;28;8818;-56
2023/10/15 09:32:54;;;;;;;;;3.50;2.00;;;;;9.75;74.23;100222.50;5094990;28;8822;-56
2023/10/15 09:35:24;;;;;;;;;3.00;3.00;;;;;9.76;74.43;100224.19;5094945;28;8842;-56
2023/10/15 09:37:53;;;;;;;;;3.75;2.50;;;;;9.81;74.01;100222.03;5095507;28;8960;-56
2023/10/15 09:40:23;;;;;;;;;4.00;3.00;;;;;9.83;73.91;100225.47;5096092;28;8853;-56
2023/10/15 09:42:53;;;;;;;;;2.00;2.00;;;;;9.82;74.04;100226.41;5095157;28;8817;-57
2023/10/15 09:45:23;;;;;;;;;4.00;4.00;;;;;9.78;73.94;100240.88;5095984;28;8834;-59
2023/10/15 09:47:52;;;;;;;;;3.75;3.00;;;;;9.75;74.03;100233.13;5095770;28;8916;-56
2023/10/15 09:50:24;;;;;;;;;2.00;2.00;;;;;9.75;74.09;100240.25;5095443;28;8830;-59
2023/10/15 09:52:56;;;;;;;;;1.00;1.00;;;;;9.71;74.20;100233.47;5094927;28;8830;-59
2023/10/15 09:55:26;;;;;;;;;3.00;3.00;;;;;9.67;74.88;100242.59;5095841;28;8825;-59
2023/10/15 09:57:54;;;;;;;;;3.75;3.75;;;;;9.59;74.55;100245.81;5095633;28;9604;-57
2023/10/15 10:00:32;;;;;;;;;0.00;0.00;;;;;9.52;75.16;100249.88;5095536;28;8826;-58
2023/10/15 10:03:02;;;;;;;;;4.00;3.00;;;;;9.49;74.67;100258.03;5095788;28;8842;-56
2023/10/15 10:05:44;;;;;;;;;0.25;0.25;;;;;9.46;74.41;100265.38;5095676;28;8829;-59
2023/10/15 10:08:14;;;;;;;;;0.75;0.00;;;;;9.41;74.81;100246.28;5096226;28;8818;-57
2023/10/15 10:10:44;;;;;;;;;1.00;0.75;;;;;9.33;74.72;100262.72;5096221;28;8838;-57
2023/10/15 10:13:11;;;;;;;;;1.50;1.25;;;;;9.31;75.26;100269.09;5095490;28;8884;-58
2023/10/15 10:15:40;;;;;;;;;1.00;1.00;;;;;9.33;75.19;100273.38;5096280;28;8830;-58
2023/10/15 10:18:08;;;;;;;;;3.00;2.00;;;;;9.42;75.12;100267.41;5095588;28;9517;-56
2023/10/15 10:20:37;;;;;;;;;3.00;3.00;;;;;9.59;74.75;100266.22;5095895;28;8927;-58
2023/10/15 10:23:04;;;;;;;;;3.75;3.75;;;;;9.77;74.01;100271.09;5095756;28;8844;-57
2023/10/15 10:25:32;;;;;;;;;1.00;1.00;;;;;9.93;73.78;100269.03;5095820;28;8931;-57
2023/10/15 10:28:00;;;;;;;;;1.50;1.50;;;;;10.04;73.54;100277.16;5098639;28;8832;-58
2023/10/15 10:30:42;;;;;;;;;0.00;0.00;;;;;10.12;73.37;100269.47;5114243;28;8887;-57
2023/10/15 10:33:10;;;;;;;;;3.00;1.50;;;;;10.20;73.43;100276.88;5108450;28;8830;-58
2023/10/15 10:35:38;;;;;;;;;2.50;2.50;;;;;10.31;73.33;100269.81;5094873;28;8915;-58
2023/10/15 10:38:06;;;;;;;;;2.00;2.00;;;;;10.40;73.09;100268.28;5094401;28;8845;-57
2023/10/15 10:40:33;;;;;;;;;3.00;3.00;;;;;10.49;73.05;100271.13;5109479;28;8796;-56
2023/10/15 10:43:02;;;;;;;;;3.00;3.00;;;;;10.58;72.70;100269.59;5102505;28;8814;-58
2023/10/15 10:45:30;;;;;;;;;1.00;1.00;;;;;10.62;72.89;100261.25;5111054;28;8968;-58
2023/10/15 10:47:57;;;;;;;;;2.50;2.50;;;;;10.64;72.53;100271.78;5098965;28;8813;-58
2023/10/15 10:50:29;;;;;;;;;2.50;1.00;;;;;10.68;72.59;100276.78;5112564;28;8831;-57
2023/10/15 10:52:56;;;;;;;;;1.50;1.00;;;;;10.78;72.09;100272.44;5095550;28;8961;-56
2023/10/15 10:55:23;;;;;;;;;1.00;1.00;;;;;10.91;71.89;100273.22;5095473;28;8814;-56
2023/10/15 10:57:52;;;;;;;;;1.50;1.00;;;;;11.15;72.10;100265.19;5095110;28;8806;-56
2023/10/15 11:00:19;;;;;;;;;0.50;0.00;;;;;11.29;71.34;100276.47;5095078;28;8834;-57
2023/10/15 11:02:48;;;;;;;;;0.75;0.25;;;;;11.38;71.36;100283.75;5094748;28;8849;-57
2023/10/15 11:05:16;;;;;;;;;1.00;1.00;;;;;11.35;71.39;100275.16;5094808;28;8830;-56
2023/10/15 11:07:46;;;;;;;;;0.50;0.50;;;;;11.30;71.13;100264.84;5093720;28;8968;-57
2023/10/15 11:10:14;;;;;;;;;0.50;0.50;;;;;11.50;71.13;100264.16;5093404;28;8816;-56
2023/10/15 11:12:42;;;;;;;;;1.00;1.00;;;;;11.85;70.30;100259.59;5093935;28;8856;-57
2023/10/15 11:15:10;;;;;;;;;1.00;1.00;;;;;12.42;68.67;100268.22;5094080;28;8865;-57
2023/10/15 11:17:38;;;;;;;;;0.75;0.75;;;;;12.97;67.34;100258.19;5093880;28;8841;-58
2023/10/15 11:20:05;;;;;;;;;0.75;0.75;;;;;13.39;66.80;100265.25;5093139;28;8883;-57
2023/10/15 11:22:35;;;;;;;;;0.00;0.00;;;;;13.60;66.69;100262.53;5094148;28;8834;-59
2023/10/15 11:25:11;;;;;;;;;1.00;1.00;;;;;13.39;67.64;100267.06;5093763;28;8840;-59
2023/10/15 11:27:39;;;;;;;;;0.00;0.00;;;;;13.29;67.33;100263.50;5093974;28;8853;-59
2023/10/15 11:30:08;;;;;;;;;0.00;0.00;;;;;13.04;68.31;100279.91;5094186;28;8841;-56
2023/10/15 11:32:35;;;;;;;;;0.00;0.00;;;;;12.73;69.21;100280.75;5093725;28;8854;-58
2023/10/15 11:35:03;;;;;;;;;0.00;0.00;;;;;12.69;69.26;100279.31;5094100;28;8838;-57
2023/10/15 11:37:31;;;;;;;;;0.00;0.00;;;;;12.91;68.89;100277.38;5094425;28;8814;-58
2023/10/15 11:39:59;;;;;;;;;1.00;1.00;;;;;12.78;68.91;100283.88;5093416;28;8856;-58
2023/10/15 11:42:28;;;;;;;;;0.00;0.00;;;;;12.51;69.36;100280.81;5094055;28;8919;-58
2023/10/15 11:44:56;;;;;;;;;0.00;0.00;;;;;12.15;70.46;100291.84;5094077;28;8963;-57
2023/10/15 11:47:27;;;;;;;;;0.00;0.00;;;;;11.80;71.29;100285.78;5094010;28;8834;-59
2023/10/15 11:49:55;;;;;;;;;0.00;0.00;;;;;12.17;70.53;100289.88;5094009;28;8838;-59
2023/10/15 11:52:23;;;;;;;;;0.00;0.00;;;;;13.06;68.46;100291.34;5093311;28;8883;-58
2023/10/15 11:54:51;;;;;;;;;0.00;0.00;;;;;13.74;66.67;100270.22;5097741;28;8843;-57